Time;durP1;ratioP1;P1;durP2;ratioP2;P2;SDS_P1;SDS_P2;PMS_P1;PMS_P2;Temp;Humidity;BMP_temperature;BMP_pressure;BME280_temperature;BME280_humidity;BME280_pressure;Samples;Min_cycle;Max_cycle;Signal;HPM_P1;HPM_P2
2023/09/18 00:01:25;;;;;;;;;;;;;;;14.40;85.74;100534.84;105582;1251;69115;-69
2023/09/18 00:03:53;;;;;;;;;;;;;;;14.40;85.74;100534.82;105636;1255;69113;-69
2023/09/18 00:06:23;;;;;;;;;;;;;;;14.38;85.80;100535.80;105612;1252;75167;-69
2023/09/18 00:08:52;;;;;;;;;;;;;;;14.37;85.99;100533.22;105603;1255;84660;-69
2023/09/18 00:11:21;;;;;;;;;;;;;;;14.36;85.91;100529.44;105648;1256;73097;-69
2023/09/18 00:13:49;;;;;;;;;;;;;;;14.33;85.90;100525.36;105569;1251;69189;-69
2023/09/18 00:16:17;;;;;;;;;;;;;;;14.33;85.90;100522.02;105584;1251;69087;-69
2023/09/18 00:18:45;;;;;;;;;;;;;;;14.31;85.85;100519.13;105578;1256;73891;-69
2023/09/18 00:21:14;;;;;;;;;;;;;;;14.28;85.66;100521.91;105577;1251;83322;-69
2023/09/18 00:23:42;;;;;;;;;;;;;;;14.25;85.77;100517.33;105626;1255;73511;-69
2023/09/18 00:26:10;;;;;;;;;;;;;;;14.23;85.90;100519.48;105635;1255;69206;-69
2023/09/18 00:28:41;;;;;;;;;;;;;;;14.22;86.00;100520.80;105640;1253;69138;-69
2023/09/18 00:31:10;;;;;;;;;;;;;;;14.21;86.14;100520.50;105651;1255;75134;-69
2023/09/18 00:33:38;;;;;;;;;;;;;;;14.20;86.20;100522.12;105475;1257;83094;-69
2023/09/18 00:36:06;;;;;;;;;;;;;;;14.19;86.26;100521.30;105456;1257;73851;-69
2023/09/18 00:38:34;;;;;;;;;;;;;;;14.17;86.11;100518.58;105496;1257;69160;-68
2023/09/18 00:41:02;;;;;;;;;;;;;;;14.15;86.21;100514.64;105488;1252;69098;-68
2023/09/18 00:43:31;;;;;;;;;;;;;;;14.14;86.31;100508.92;105542;1251;74720;-68
2023/09/18 00:45:59;;;;;;;;;;;;;;;14.13;86.40;100509.65;105616;1251;83310;-68
2023/09/18 00:48:28;;;;;;;;;;;;;;;14.11;86.41;100505.02;105437;1253;72658;-68
2023/09/18 00:50:56;;;;;;;;;;;;;;;14.08;86.31;100506.03;105626;1251;69051;-68
2023/09/18 00:53:25;;;;;;;;;;;;;;;14.07;86.58;100500.62;105574;1257;69129;-68
2023/09/18 00:55:54;;;;;;;;;;;;;;;14.07;86.41;100500.12;105518;1251;73887;-68
2023/09/18 00:58:22;;;;;;;;;;;;;;;14.03;86.46;100501.52;105606;1252;83637;-68
2023/09/18 01:00:51;;;;;;;;;;;;;;;14.00;86.49;100505.71;105501;1257;73018;-69
2023/09/18 01:03:20;;;;;;;;;;;;;;;13.99;86.67;100502.59;105502;1255;69132;-69
2023/09/18 01:05:48;;;;;;;;;;;;;;;13.99;86.83;100498.38;105554;1257;69181;-68
2023/09/18 01:08:17;;;;;;;;;;;;;;;14.00;86.99;100498.73;105591;1257;74833;-69
2023/09/18 01:10:57;;;;;;;;;;;;;;;13.98;86.98;100494.58;105607;1253;83701;-69
2023/09/18 01:13:30;;;;;;;;;;;;;;;13.97;86.83;100490.61;105631;1251;72546;-69
2023/09/18 01:16:00;;;;;;;;;;;;;;;13.95;86.75;100489.45;105604;1253;69196;-68
2023/09/18 01:18:28;;;;;;;;;;;;;;;13.93;86.96;100482.86;105585;1251;69111;-69
2023/09/18 01:20:57;;;;;;;;;;;;;;;13.93;86.88;100478.84;105612;1255;74748;-69
2023/09/18 01:23:25;;;;;;;;;;;;;;;13.92;87.00;100469.09;105491;1254;83453;-72
2023/09/18 01:25:53;;;;;;;;;;;;;;;13.90;86.97;100464.27;105511;1257;73804;-72
2023/09/18 01:28:21;;;;;;;;;;;;;;;13.88;87.00;100462.79;105597;1255;69176;-72
2023/09/18 01:30:49;;;;;;;;;;;;;;;13.86;87.05;100458.85;105640;1251;69059;-72
2023/09/18 01:33:18;;;;;;;;;;;;;;;13.84;87.07;100464.55;105634;1252;74527;-72
2023/09/18 01:35:46;;;;;;;;;;;;;;;13.81;87.07;100468.36;105593;1257;82113;-72
2023/09/18 01:38:14;;;;;;;;;;;;;;;13.79;87.10;100466.86;105473;1251;73699;-72
2023/09/18 01:40:43;;;;;;;;;;;;;;;13.78;87.22;100459.58;105455;1253;69170;-72
2023/09/18 01:43:11;;;;;;;;;;;;;;;13.77;87.42;100451.52;105521;1253;69167;-72
2023/09/18 01:45:39;;;;;;;;;;;;;;;13.75;87.17;100447.04;105612;1251;75125;-72
2023/09/18 01:48:07;;;;;;;;;;;;;;;13.72;87.18;100447.05;105499;1258;83308;-72
2023/09/18 01:50:36;;;;;;;;;;;;;;;13.70;87.51;100448.73;105683;1255;73046;-72
2023/09/18 01:53:05;;;;;;;;;;;;;;;13.70;87.58;100450.48;105527;1257;69244;-72
2023/09/18 01:55:33;;;;;;;;;;;;;;;13.70;87.52;100449.41;105571;1256;69184;-72
2023/09/18 01:58:02;;;;;;;;;;;;;;;13.68;87.32;100449.54;105556;1257;74404;-72
2023/09/18 02:00:32;;;;;;;;;;;;;;;13.65;87.30;100447.05;105594;1253;83294;-72
2023/09/18 02:03:01;;;;;;;;;;;;;;;13.63;87.46;100440.63;105535;1256;74022;-72
2023/09/18 02:05:49;;;;;;;;;;;;;;;13.63;87.61;100441.16;105570;1255;69209;-72
2023/09/18 02:08:18;;;;;;;;;;;;;;;13.64;87.79;100437.12;105671;1255;69187;-72
2023/09/18 02:10:46;;;;;;;;;;;;;;;13.63;87.62;100435.05;105592;1253;74126;-72
2023/09/18 02:13:14;;;;;;;;;;;;;;;13.60;87.85;100432.85;105590;1257;83427;-72
2023/09/18 02:15:43;;;;;;;;;;;;;;;13.60;87.89;100430.42;105448;1257;73614;-72
2023/09/18 02:18:11;;;;;;;;;;;;;;;13.59;87.77;100429.95;105597;1251;69206;-72
2023/09/18 02:20:40;;;;;;;;;;;;;;;13.57;87.71;100429.87;105590;1253;69164;-71
2023/09/18 02:23:08;;;;;;;;;;;;;;;13.53;87.65;100430.75;105679;1253;74584;-72
2023/09/18 02:25:37;;;;;;;;;;;;;;;13.52;87.89;100429.59;105608;1255;83095;-72
2023/09/18 02:28:05;;;;;;;;;;;;;;;13.52;88.03;100430.30;105647;1252;72678;-72
2023/09/18 02:30:33;;;;;;;;;;;;;;;13.51;87.99;100434.05;105613;1254;69236;-72
2023/09/18 02:33:05;;;;;;;;;;;;;;;13.50;88.11;100433.73;105595;1255;69168;-72
2023/09/18 02:35:36;;;;;;;;;;;;;;;13.50;88.15;100432.33;105681;1251;74537;-72
2023/09/18 02:38:04;;;;;;;;;;;;;;;13.49;88.11;100429.55;105513;1257;83366;-72
2023/09/18 02:40:32;;;;;;;;;;;;;;;13.48;88.18;100424.54;105595;1256;72678;-72
2023/09/18 02:43:02;;;;;;;;;;;;;;;13.46;88.08;100417.21;105592;1251;69185;-72
2023/09/18 02:45:30;;;;;;;;;;;;;;;13.44;88.09;100418.39;105595;1255;69207;-71
2023/09/18 02:47:58;;;;;;;;;;;;;;;13.43;88.36;100414.95;105606;1251;74723;-72
2023/09/18 02:50:26;;;;;;;;;;;;;;;13.45;88.50;100413.29;105521;1258;83303;-72
2023/09/18 02:52:55;;;;;;;;;;;;;;;13.44;88.47;100411.91;105651;1255;73346;-72
2023/09/18 02:55:23;;;;;;;;;;;;;;;13.42;88.31;100412.36;105490;1253;69380;-72
2023/09/18 02:57:51;;;;;;;;;;;;;;;13.38;88.17;100411.85;105525;1253;69177;-73
2023/09/18 03:00:21;;;;;;;;;;;;;;;13.36;88.05;100409.98;105632;1253;74810;-72
2023/09/18 03:03:08;;;;;;;;;;;;;;;13.35;88.27;100404.61;105574;1255;83370;-72
2023/09/18 03:05:37;;;;;;;;;;;;;;;13.34;88.29;100402.91;105588;1254;73357;-72
2023/09/18 03:08:08;;;;;;;;;;;;;;;13.31;88.11;100404.77;105646;1255;69118;-72
2023/09/18 03:10:39;;;;;;;;;;;;;;;13.31;88.61;100403.42;105606;1253;69169;-72
2023/09/18 03:13:09;;;;;;;;;;;;;;;13.31;88.68;100402.52;105524;1257;74988;-72
2023/09/18 03:15:37;;;;;;;;;;;;;;;13.31;88.81;100398.14;105519;1253;83402;-72
2023/09/18 03:18:07;;;;;;;;;;;;;;;13.30;88.65;100399.92;105583;1255;73641;-71
2023/09/18 03:20:35;;;;;;;;;;;;;;;13.31;88.91;100398.13;105516;1257;69299;-72
2023/09/18 03:23:04;;;;;;;;;;;;;;;13.33;89.29;100388.72;105621;1251;69556;-71
2023/09/18 03:25:33;;;;;;;;;;;;;;;13.35;89.18;100388.79;105521;1257;73846;-72
2023/09/18 03:28:20;;;;;;;;;;;;;;;13.36;89.22;100386.14;105595;1255;83021;-72
2023/09/18 03:30:49;;;;;;;;;;;;;;;13.34;89.34;100381.50;105604;1253;73763;-73
2023/09/18 03:33:20;;;;;;;;;;;;;;;13.34;89.14;100379.22;105576;1253;69577;-72
2023/09/18 03:35:49;;;;;;;;;;;;;;;13.33;89.21;100374.16;105597;1254;69285;-72
2023/09/18 03:38:21;;;;;;;;;;;;;;;13.32;89.07;100371.73;105579;1253;73911;-72
2023/09/18 03:40:50;;;;;;;;;;;;;;;13.32;89.16;100369.48;105619;1255;83662;-72
2023/09/18 03:43:19;;;;;;;;;;;;;;;13.33;89.28;100367.14;105593;1253;73671;-72
2023/09/18 03:45:48;;;;;;;;;;;;;;;13.32;89.20;100369.31;105662;1253;69172;-72
2023/09/18 03:48:16;;;;;;;;;;;;;;;13.28;88.99;100367.20;105639;1255;69200;-72
2023/09/18 03:50:47;;;;;;;;;;;;;;;13.26;89.05;100366.62;105621;1253;74833;-71
2023/09/18 03:53:15;;;;;;;;;;;;;;;13.24;89.04;100362.48;105586;1256;83717;-72
2023/09/18 03:55:44;;;;;;;;;;;;;;;13.22;89.16;100356.95;105541;1258;73962;-72
2023/09/18 03:58:13;;;;;;;;;;;;;;;13.18;88.76;100357.13;105577;1251;69249;-71
2023/09/18 04:00:41;;;;;;;;;;;;;;;13.15;88.94;100355.88;105586;1253;69167;-71
2023/09/18 04:03:09;;;;;;;;;;;;;;;13.14;89.01;100356.61;105652;1255;73796;-71
2023/09/18 04:05:38;;;;;;;;;;;;;;;13.12;88.91;100355.87;105673;1255;83083;-67
2023/09/18 04:08:06;;;;;;;;;;;;;;;13.08;88.88;100356.05;105447;1258;73708;-70
2023/09/18 04:10:35;;;;;;;;;;;;;;;13.07;89.22;100356.27;105582;1256;70506;-70
2023/09/18 04:13:04;;;;;;;;;;;;;;;13.07;89.36;100353.11;105586;1255;69161;-69
2023/09/18 04:15:32;;;;;;;;;;;;;;;13.07;89.34;100353.45;105542;1253;75049;-69
2023/09/18 04:18:00;;;;;;;;;;;;;;;13.06;89.48;100343.84;105705;1253;82417;-69
2023/09/18 04:20:29;;;;;;;;;;;;;;;13.07;89.29;100331.73;105576;1253;73551;-69
2023/09/18 04:23:17;;;;;;;;;;;;;;;13.10;90.27;100328.04;105598;1256;69231;-69
2023/09/18 04:25:45;;;;;;;;;;;;;;;13.19;90.96;100327.27;105553;1253;69193;-69
2023/09/18 04:28:15;;;;;;;;;;;;;;;13.28;91.56;100318.80;105566;1254;74189;-69
2023/09/18 04:30:43;;;;;;;;;;;;;;;13.34;91.68;100322.18;105557;1252;83444;-69
2023/09/18 04:33:14;;;;;;;;;;;;;;;13.30;90.61;100323.06;105497;1253;72625;-69
2023/09/18 04:35:43;;;;;;;;;;;;;;;13.26;90.42;100322.05;105614;1253;69126;-70
2023/09/18 04:38:14;;;;;;;;;;;;;;;13.22;90.08;100318.69;105608;1254;69166;-69
2023/09/18 04:40:42;;;;;;;;;;;;;;;13.18;89.91;100312.76;105537;1255;75098;-69
2023/09/18 04:43:11;;;;;;;;;;;;;;;13.14;89.74;100312.41;105545;1251;83342;-69
2023/09/18 04:45:39;;;;;;;;;;;;;;;13.10;89.75;100318.20;105590;1255;73743;-68
2023/09/18 04:48:08;;;;;;;;;;;;;;;13.07;89.70;100318.36;105675;1253;69273;-68
2023/09/18 04:50:37;;;;;;;;;;;;;;;13.07;90.14;100315.57;105596;1253;69189;-69
2023/09/18 04:53:05;;;;;;;;;;;;;;;13.09;90.10;100315.48;105497;1253;74901;-69
2023/09/18 04:55:33;;;;;;;;;;;;;;;13.11;90.29;100315.92;105492;1256;83355;-68
2023/09/18 04:58:03;;;;;;;;;;;;;;;13.13;90.23;100314.41;105494;1258;72702;-69
2023/09/18 05:00:33;;;;;;;;;;;;;;;13.15;90.54;100313.40;105565;1253;69038;-70
2023/09/18 05:03:03;;;;;;;;;;;;;;;13.19;90.76;100313.91;105378;1253;69164;-73
2023/09/18 05:05:32;;;;;;;;;;;;;;;13.25;91.20;100314.71;105638;1253;74905;-73
2023/09/18 05:08:07;;;;;;;;;;;;;;;13.34;92.01;100312.36;105598;1258;83351;-70
2023/09/18 05:10:36;;;;;;;;;;;;;;;13.45;92.63;100307.21;105635;1253;73537;-71
2023/09/18 05:13:04;;;;;;;;;;;;;;;13.54;92.75;100305.89;105609;1253;69199;-71
2023/09/18 05:15:33;;;;;;;;;;;;;;;13.58;92.39;100302.54;105780;1257;69168;-71
2023/09/18 05:18:03;;;;;;;;;;;;;;;13.62;92.23;100301.64;105691;1253;74447;-70
2023/09/18 05:20:33;;;;;;;;;;;;;;;13.62;91.85;100298.48;105710;1256;83407;-71
2023/09/18 05:23:02;;;;;;;;;;;;;;;13.63;91.75;100300.38;105724;1254;74445;-71
2023/09/18 05:25:32;;;;;;;;;;;;;;;13.64;91.78;100295.93;105603;1253;69109;-71
2023/09/18 05:28:00;;;;;;;;;;;;;;;13.65;91.82;100293.74;105563;1256;69193;-73
2023/09/18 05:30:32;;;;;;;;;;;;;;;13.67;91.70;100289.95;105694;1253;74651;-71
2023/09/18 05:33:04;;;;;;;;;;;;;;;13.69;91.66;100288.45;105741;1258;83620;-72
2023/09/18 05:35:34;;;;;;;;;;;;;;;13.75;91.91;100288.52;105758;1255;72685;-72
2023/09/18 05:38:03;;;;;;;;;;;;;;;13.80;92.08;100287.51;105605;1254;69069;-72
2023/09/18 05:40:31;;;;;;;;;;;;;;;13.84;92.27;100282.90;105648;1258;69115;-72
2023/09/18 05:43:00;;;;;;;;;;;;;;;13.91;92.71;100280.81;105814;1253;75028;-72
2023/09/18 05:45:28;;;;;;;;;;;;;;;13.99;92.79;100277.56;105628;1255;83793;-72
2023/09/18 05:48:03;;;;;;;;;;;;;;;14.08;93.19;100276.59;105630;1255;73569;-72
2023/09/18 05:50:33;;;;;;;;;;;;;;;14.19;93.52;100279.32;105624;1255;69263;-72
2023/09/18 05:53:03;;;;;;;;;;;;;;;14.30;94.13;100276.61;105674;1258;69178;-72
2023/09/18 05:55:33;;;;;;;;;;;;;;;14.43;94.66;100276.08;105710;1253;73883;-72
2023/09/18 05:58:01;;;;;;;;;;;;;;;14.54;94.86;100270.21;105650;1253;84016;-71
2023/09/18 06:00:31;;;;;;;;;;;;;;;14.64;94.71;100268.27;105660;1257;72535;-71
2023/09/18 06:03:00;;;;;;;;;;;;;;;14.75;95.03;100265.89;105705;1257;69294;-71
2023/09/18 06:05:31;;;;;;;;;;;;;;;14.88;95.34;100257.41;105752;1255;69169;-71
2023/09/18 06:08:00;;;;;;;;;;;;;;;15.01;95.48;100257.90;105810;1253;74856;-71
2023/09/18 06:10:28;;;;;;;;;;;;;;;15.14;95.69;100254.85;105667;1257;83014;-71
2023/09/18 06:12:58;;;;;;;;;;;;;;;15.27;95.81;100253.20;105739;1255;73809;-71
2023/09/18 06:15:26;;;;;;;;;;;;;;;15.41;95.98;100255.74;105627;1255;69183;-72
2023/09/18 06:17:55;;;;;;;;;;;;;;;15.54;96.07;100253.36;105715;1255;69114;-72
2023/09/18 06:20:23;;;;;;;;;;;;;;;15.67;96.16;100253.45;105610;1253;75012;-71
2023/09/18 06:22:51;;;;;;;;;;;;;;;15.82;96.35;100254.19;105570;1253;82543;-71
2023/09/18 06:25:20;;;;;;;;;;;;;;;15.95;96.30;100249.35;105602;1258;73516;-71
2023/09/18 06:27:48;;;;;;;;;;;;;;;16.09;96.59;100247.38;105595;1255;69644;-71
2023/09/18 06:30:17;;;;;;;;;;;;;;;16.24;96.58;100248.73;105733;1255;69193;-72
2023/09/18 06:32:45;;;;;;;;;;;;;;;16.39;96.56;100247.99;105620;1253;73852;-71
2023/09/18 06:35:13;;;;;;;;;;;;;;;16.52;96.60;100247.83;105658;1256;83602;-71
2023/09/18 06:37:41;;;;;;;;;;;;;;;16.66;96.75;100242.89;105551;1253;74297;-72
2023/09/18 06:40:09;;;;;;;;;;;;;;;16.79;96.83;100243.48;105610;1256;69114;-68
2023/09/18 06:42:38;;;;;;;;;;;;;;;16.94;96.88;100242.01;105617;1254;69254;-69
2023/09/18 06:45:06;;;;;;;;;;;;;;;17.08;97.08;100236.84;105914;1254;75003;-68
2023/09/18 06:47:35;;;;;;;;;;;;;;;17.22;96.94;100230.62;107326;1254;83547;-68
2023/09/18 06:50:05;;;;;;;;;;;;;;;17.35;96.72;100229.70;105639;1255;73533;-68
2023/09/18 06:52:33;;;;;;;;;;;;;;;17.49;96.56;100233.86;105697;1258;69177;-68
2023/09/18 06:55:01;;;;;;;;;;;;;;;17.66;96.56;100235.04;105671;1256;69165;-72
2023/09/18 06:57:29;;;;;;;;;;;;;;;17.79;96.23;100233.58;105616;1256;74300;-68
2023/09/18 06:59:57;;;;;;;;;;;;;;;17.93;96.17;100238.98;105719;1256;84042;-67
2023/09/18 07:02:27;;;;;;;;;;;;;;;18.10;96.16;100236.54;105723;1252;73417;-67
2023/09/18 07:04:55;;;;;;;;;;;;;;;18.26;96.01;100238.05;105768;1253;69166;-67
2023/09/18 07:07:25;;;;;;;;;;;;;;;18.42;95.89;100238.48;105649;1255;69802;-73
2023/09/18 07:09:53;;;;;;;;;;;;;;;18.58;95.47;100230.59;105696;1252;74734;-73
2023/09/18 07:12:32;;;;;;;;;;;;;;;18.75;95.01;100234.33;105589;1255;83350;-66
2023/09/18 07:15:03;;;;;;;;;;;;;;;18.93;94.79;100233.20;105627;1251;72379;-67
2023/09/18 07:17:32;;;;;;;;;;;;;;;19.10;94.45;100231.94;105572;1256;69179;-67
2023/09/18 07:20:07;;;;;;;;;;;;;;;19.27;93.97;100225.91;105621;1255;69121;-67
2023/09/18 07:22:36;;;;;;;;;;;;;;;19.44;93.39;100223.17;105554;1255;74634;-68
2023/09/18 07:25:04;;;;;;;;;;;;;;;19.59;92.86;100218.59;105586;1253;83321;-67
2023/09/18 07:27:32;;;;;;;;;;;;;;;19.74;92.50;100214.80;105653;1255;73669;-67
2023/09/18 07:30:00;;;;;;;;;;;;;;;19.90;92.20;100213.58;105539;1255;69121;-67
2023/09/18 07:32:29;;;;;;;;;;;;;;;20.06;91.68;100211.38;105585;1255;69128;-67
2023/09/18 07:35:09;;;;;;;;;;;;;;;20.21;90.95;100213.39;105560;1256;74734;-70
2023/09/18 07:37:37;;;;;;;;;;;;;;;20.35;90.50;100211.96;105603;1251;83380;-68
2023/09/18 07:40:06;;;;;;;;;;;;;;;20.49;89.96;100210.79;105538;1255;72718;-67
2023/09/18 07:42:34;;;;;;;;;;;;;;;20.66;89.75;100207.48;105655;1253;69232;-69
2023/09/18 07:45:02;;;;;;;;;;;;;;;20.82;89.10;100203.16;105612;1255;69180;-68
2023/09/18 07:47:31;;;;;;;;;;;;;;;20.95;88.47;100198.82;105598;1254;74844;-68
2023/09/18 07:50:00;;;;;;;;;;;;;;;21.09;87.87;100193.06;105593;1255;82489;-68
2023/09/18 07:52:29;;;;;;;;;;;;;;;21.23;87.48;100191.52;105647;1255;71416;-68
2023/09/18 07:54:58;;;;;;;;;;;;;;;21.36;86.89;100189.50;105613;1253;69099;-68
2023/09/18 07:57:28;;;;;;;;;;;;;;;21.49;86.47;100186.10;105622;1255;69160;-68
2023/09/18 07:59:56;;;;;;;;;;;;;;;21.63;85.86;100181.18;105465;1256;243468;-68
2023/09/18 08:02:25;;;;;;;;;;;;;;;21.74;85.31;100178.63;105620;1255;83496;-68
2023/09/18 08:04:53;;;;;;;;;;;;;;;21.87;84.79;100176.45;105619;1253;73378;-68
2023/09/18 08:07:22;;;;;;;;;;;;;;;21.97;84.16;100176.65;105558;1256;69190;-68
2023/09/18 08:09:51;;;;;;;;;;;;;;;22.07;83.81;100171.31;105636;1256;69164;-68
2023/09/18 08:12:19;;;;;;;;;;;;;;;22.17;83.37;100170.54;105630;1257;74474;-68
2023/09/18 08:14:49;;;;;;;;;;;;;;;22.30;83.04;100171.56;105583;1255;83268;-68
2023/09/18 08:17:17;;;;;;;;;;;;;;;22.43;82.41;100170.91;105586;1255;73718;-68
2023/09/18 08:19:45;;;;;;;;;;;;;;;22.52;81.84;100163.00;105592;1256;69199;-68
2023/09/18 08:22:15;;;;;;;;;;;;;;;22.62;81.22;100162.39;105589;1256;69102;-68
2023/09/18 08:24:45;;;;;;;;;;;;;;;22.73;80.67;100160.18;105644;1255;73831;-68
2023/09/18 08:27:16;;;;;;;;;;;;;;;22.82;79.98;100160.64;105664;1254;83688;-68
2023/09/18 08:29:45;;;;;;;;;;;;;;;22.88;79.59;100158.04;105587;1256;73653;-67
2023/09/18 08:32:13;;;;;;;;;;;;;;;23.00;79.53;100157.20;105619;1255;69522;-68
2023/09/18 08:34:42;;;;;;;;;;;;;;;23.10;78.99;100151.10;105660;1255;69110;-72
2023/09/18 08:37:10;;;;;;;;;;;;;;;23.15;78.25;100149.54;105560;1265;76875;-67
2023/09/18 08:39:38;;;;;;;;;;;;;;;23.24;78.01;100150.86;105557;1255;83404;-74
2023/09/18 08:42:07;;;;;;;;;;;;;;;23.35;77.97;100145.16;105657;1256;73607;-69
2023/09/18 08:44:35;;;;;;;;;;;;;;;23.48;77.62;100146.41;105635;1256;69744;-74
2023/09/18 08:47:04;;;;;;;;;;;;;;;23.58;77.18;100142.93;105689;1251;69072;-70
2023/09/18 08:49:33;;;;;;;;;;;;;;;23.72;77.02;100140.73;105705;1257;74339;-71
2023/09/18 08:52:01;;;;;;;;;;;;;;;23.86;76.59;100142.48;105659;1254;82279;-70
2023/09/18 08:54:30;;;;;;;;;;;;;;;23.96;76.23;100140.21;105587;1255;74131;-70
2023/09/18 08:56:58;;;;;;;;;;;;;;;24.07;75.81;100133.27;105656;1255;69171;-69
2023/09/18 08:59:27;;;;;;;;;;;;;;;24.17;75.02;100134.96;105617;1256;69151;-70
2023/09/18 09:01:55;;;;;;;;;;;;;;;24.24;74.63;100130.28;105612;1255;74736;-70
2023/09/18 09:04:23;;;;;;;;;;;;;;;24.34;74.37;100128.28;105574;1256;82408;-70
2023/09/18 09:06:51;;;;;;;;;;;;;;;24.44;74.02;100127.09;105551;1256;72627;-70
2023/09/18 09:09:20;;;;;;;;;;;;;;;24.54;73.56;100129.73;105634;1256;69066;-70
2023/09/18 09:11:51;;;;;;;;;;;;;;;24.62;72.97;100130.48;105586;1256;69139;-70
2023/09/18 09:14:21;;;;;;;;;;;;;;;24.66;72.43;100128.90;105572;1255;75059;-70
2023/09/18 09:16:51;;;;;;;;;;;;;;;24.70;71.95;100128.64;105624;1255;82342;-69
2023/09/18 09:19:27;;;;;;;;;;;;;;;24.75;71.62;100124.09;105624;1257;72428;-70
2023/09/18 09:21:56;;;;;;;;;;;;;;;24.81;71.28;100117.54;105599;1251;69279;-69
2023/09/18 09:24:41;;;;;;;;;;;;;;;24.91;71.19;100114.52;105600;1251;69162;-70
2023/09/18 09:27:09;;;;;;;;;;;;;;;25.07;71.12;100115.21;105620;1256;74725;-69
2023/09/18 09:29:38;;;;;;;;;;;;;;;25.17;70.55;100109.58;105578;1255;82559;-70
2023/09/18 09:32:11;;;;;;;;;;;;;;;25.25;69.99;100109.95;105626;1257;74380;-71
2023/09/18 09:34:40;;;;;;;;;;;;;;;25.29;69.50;100106.52;105622;1251;69170;-71
2023/09/18 09:37:10;;;;;;;;;;;;;;;25.31;68.90;100103.32;105617;1255;69106;-67
2023/09/18 09:39:48;;;;;;;;;;;;;;;25.39;69.02;100098.50;105631;1251;74669;-68
2023/09/18 09:42:18;;;;;;;;;;;;;;;25.52;68.57;100095.38;105629;1255;82896;-68
2023/09/18 09:44:47;;;;;;;;;;;;;;;25.66;68.12;100090.50;105568;1256;73780;-68
2023/09/18 09:47:15;;;;;;;;;;;;;;;25.84;68.25;100089.91;105608;1256;69259;-68
2023/09/18 09:49:47;;;;;;;;;;;;;;;26.04;68.29;100083.64;105629;1257;69069;-68
2023/09/18 09:52:22;;;;;;;;;;;;;;;26.26;68.16;100089.85;105619;1251;75141;-68
2023/09/18 09:54:50;;;;;;;;;;;;;;;26.48;67.71;100090.89;105569;1255;83816;-67
2023/09/18 09:57:18;;;;;;;;;;;;;;;26.67;66.93;100091.35;105597;1255;73861;-68
2023/09/18 09:59:46;;;;;;;;;;;;;;;26.81;65.97;100083.67;105551;1256;69154;-68
2023/09/18 10:02:19;;;;;;;;;;;;;;;26.96;65.36;100078.81;105621;1251;69276;-68
2023/09/18 10:04:48;;;;;;;;;;;;;;;27.08;64.70;100073.14;105620;1256;75128;-68
2023/09/18 10:07:18;;;;;;;;;;;;;;;27.27;64.51;100081.73;105571;1256;82732;-69
2023/09/18 10:09:47;;;;;;;;;;;;;;;27.42;63.41;100082.84;105558;1256;72805;-69
2023/09/18 10:12:15;;;;;;;;;;;;;;;27.56;63.17;100086.84;105645;1251;69224;-69
2023/09/18 10:14:43;;;;;;;;;;;;;;;27.76;62.75;100081.52;105657;1257;69085;-68
2023/09/18 10:17:29;;;;;;;;;;;;;;;27.98;61.89;100082.02;105619;1256;74882;-68
2023/09/18 10:20:16;;;;;;;;;;;;;;;28.14;61.31;100081.20;105619;1256;82452;-68
2023/09/18 10:22:46;;;;;;;;;;;;;;;28.40;61.13;100085.28;105591;1256;72647;-69
2023/09/18 10:25:19;;;;;;;;;;;;;;;28.56;60.36;100082.97;105579;1256;69181;-69
2023/09/18 10:27:49;;;;;;;;;;;;;;;28.82;59.90;100080.33;105614;1257;69189;-69
2023/09/18 10:30:22;;;;;;;;;;;;;;;28.96;59.02;100076.44;105648;1256;75050;-68
2023/09/18 10:32:51;;;;;;;;;;;;;;;29.10;58.54;100072.85;105623;1251;83317;-68
2023/09/18 10:35:20;;;;;;;;;;;;;;;29.24;58.15;100071.85;105641;1256;73728;-68
2023/09/18 10:37:51;;;;;;;;;;;;;;;29.46;58.08;100068.63;105547;1257;69060;-69
2023/09/18 10:40:20;;;;;;;;;;;;;;;29.74;57.48;100067.33;105610;1251;69064;-69
2023/09/18 10:42:48;;;;;;;;;;;;;;;29.92;56.78;100066.42;105635;1255;73802;-70
2023/09/18 10:45:16;;;;;;;;;;;;;;;30.08;56.03;100062.39;105650;1256;83307;-70
2023/09/18 10:47:47;;;;;;;;;;;;;;;30.25;55.79;100060.34;105690;1256;72641;-68
2023/09/18 10:50:23;;;;;;;;;;;;;;;30.40;55.19;100053.92;105607;1256;69309;-70
2023/09/18 10:52:52;;;;;;;;;;;;;;;30.64;55.11;100048.40;105613;1256;69195;-70
2023/09/18 10:55:21;;;;;;;;;;;;;;;30.84;54.50;100039.06;105630;1256;74854;-69
2023/09/18 10:57:53;;;;;;;;;;;;;;;30.94;53.79;100034.63;105630;1256;82874;-70
2023/09/18 11:00:23;;;;;;;;;;;;;;;30.94;53.51;100032.49;105616;1256;73530;-68
2023/09/18 11:02:51;;;;;;;;;;;;;;;31.10;53.57;100034.64;105564;1254;69166;-70
2023/09/18 11:05:30;;;;;;;;;;;;;;;31.38;52.53;100030.01;105651;1255;69132;-71
2023/09/18 11:08:17;;;;;;;;;;;;;;;31.47;52.22;100031.48;105628;1256;74863;-71
2023/09/18 11:10:58;;;;;;;;;;;;;;;31.60;51.80;100021.66;105529;1257;82356;-70
2023/09/18 11:13:36;;;;;;;;;;;;;;;31.64;51.07;100021.67;105622;1257;72148;-70
2023/09/18 11:16:19;;;;;;;;;;;;;;;31.72;50.51;100018.40;105791;1256;69203;-70
2023/09/18 11:18:52;;;;;;;;;;;;;;;31.87;50.24;100009.94;105548;1254;69017;-70
2023/09/18 11:21:24;;;;;;;;;;;;;;;32.03;49.93;100007.48;105735;1256;75033;-69
2023/09/18 11:23:59;;;;;;;;;;;;;;;32.19;49.33;100005.88;105715;1257;83270;-69
2023/09/18 11:26:34;;;;;;;;;;;;;;;32.18;48.62;100002.45;105904;1257;73826;-70
2023/09/18 11:29:08;;;;;;;;;;;;;;;32.25;48.26;100004.00;105729;1256;69231;-70
2023/09/18 11:31:47;;;;;;;;;;;;;;;32.23;47.67;99993.02;105650;1256;69189;-70
2023/09/18 11:34:22;;;;;;;;;;;;;;;32.18;47.55;99986.69;105605;1254;75066;-69
2023/09/18 11:36:51;;;;;;;;;;;;;;;32.13;47.16;99981.75;105696;1258;83242;-69
2023/09/18 11:39:37;;;;;;;;;;;;;;;32.12;47.12;99978.64;105494;1254;74164;-69
2023/09/18 11:42:06;;;;;;;;;;;;;;;32.24;47.06;99969.58;105694;1256;69156;-69
2023/09/18 11:44:36;;;;;;;;;;;;;;;32.24;46.36;99972.25;105644;1257;69107;-69
2023/09/18 11:47:05;;;;;;;;;;;;;;;32.35;46.44;99968.58;105709;1258;75015;-69
2023/09/18 11:49:33;;;;;;;;;;;;;;;32.56;46.41;99972.60;105518;1254;83618;-69
2023/09/18 11:52:03;;;;;;;;;;;;;;;32.72;45.68;99976.73;105540;1257;73689;-69
2023/09/18 11:54:33;;;;;;;;;;;;;;;32.80;45.15;99971.13;105664;1257;69189;-68
2023/09/18 11:57:04;;;;;;;;;;;;;;;32.82;44.83;99963.48;105732;1257;69227;-68
2023/09/18 11:59:35;;;;;;;;;;;;;;;32.89;44.77;99960.25;105861;1251;74178;-69
2023/09/18 12:02:06;;;;;;;;;;;;;;;32.89;44.37;99953.57;105662;1251;82291;-67
2023/09/18 12:04:34;;;;;;;;;;;;;;;32.90;44.52;99951.27;105638;1255;73819;-69
2023/09/18 12:07:03;;;;;;;;;;;;;;;33.04;44.68;99951.83;105806;1251;69286;-67
2023/09/18 12:09:32;;;;;;;;;;;;;;;33.20;43.97;99944.34;105687;1257;69184;-65
2023/09/18 12:12:03;;;;;;;;;;;;;;;33.20;43.71;99941.37;105627;1256;73887;-69
2023/09/18 12:14:32;;;;;;;;;;;;;;;33.19;43.28;99935.48;105659;1257;83406;-69
2023/09/18 12:17:01;;;;;;;;;;;;;;;33.23;43.35;99940.73;105636;1251;73757;-69
2023/09/18 12:19:30;;;;;;;;;;;;;;;33.31;43.15;99939.22;105673;1252;69357;-69
2023/09/18 12:21:58;;;;;;;;;;;;;;;33.43;42.67;99933.30;105647;1256;69171;-70
2023/09/18 12:24:27;;;;;;;;;;;;;;;33.56;42.33;99932.85;105650;1255;74815;-70
2023/09/18 12:26:56;;;;;;;;;;;;;;;33.56;42.02;99926.48;105602;1251;82992;-69
2023/09/18 12:29:24;;;;;;;;;;;;;;;33.61;41.68;99922.58;105493;1257;73575;-69
2023/09/18 12:31:52;;;;;;;;;;;;;;;33.74;41.74;99930.67;105539;1251;69160;-69
2023/09/18 12:34:22;;;;;;;;;;;;;;;33.80;41.33;99935.54;105522;1256;69177;-70
2023/09/18 12:36:51;;;;;;;;;;;;;;;33.81;41.28;99922.61;105608;1255;73904;-70
2023/09/18 12:39:20;;;;;;;;;;;;;;;33.74;41.05;99917.93;105622;1251;82314;-70
2023/09/18 12:41:48;;;;;;;;;;;;;;;33.63;40.81;99917.99;105601;1256;73451;-70